createdAt,value
2023-05-06T00:00:08.692Z,1011.93
2023-05-06T00:01:08.615Z,1011.93
2023-05-06T00:02:08.603Z,1011.93
2023-05-06T00:03:08.649Z,1011.94
2023-05-06T00:04:08.695Z,1011.94
2023-05-06T00:05:08.830Z,1011.95
2023-05-06T00:06:08.511Z,1011.95
2023-05-06T00:07:08.523Z,1011.96
2023-05-06T00:08:08.545Z,1011.96
2023-05-06T00:09:08.595Z,1011.96
2023-05-06T00:10:08.503Z,1011.96
2023-05-06T00:11:08.496Z,1011.94
2023-05-06T00:12:08.574Z,1011.93
2023-05-06T00:13:08.562Z,1011.91
2023-05-06T00:14:08.489Z,1011.89
2023-05-06T00:15:08.669Z,1011.88
2023-05-06T00:16:08.565Z,1011.86
2023-05-06T00:17:08.498Z,1011.85
2023-05-06T00:18:08.386Z,1011.85
2023-05-06T00:19:08.437Z,1011.85
2023-05-06T00:20:08.475Z,1011.86
2023-05-06T00:21:08.367Z,1011.86
2023-05-06T00:22:08.472Z,1011.86
2023-05-06T00:23:08.410Z,1011.86
2023-05-06T00:24:08.360Z,1011.85
2023-05-06T00:25:08.520Z,1011.84
2023-05-06T00:26:08.337Z,1011.84
2023-05-06T00:27:08.352Z,1011.83
2023-05-06T00:28:08.295Z,1011.83
2023-05-06T00:29:08.301Z,1011.82
2023-05-06T00:30:08.258Z,1011.82
2023-05-06T00:31:08.295Z,1011.81
2023-05-06T00:32:08.332Z,1011.81
2023-05-06T00:33:08.272Z,1011.80
2023-05-06T00:34:08.249Z,1011.79
2023-05-06T00:35:08.777Z,1011.78
2023-05-06T00:36:08.255Z,1011.78
2023-05-06T00:37:08.272Z,1011.78
2023-05-06T00:38:08.204Z,1011.78
2023-05-06T00:39:08.290Z,1011.79
2023-05-06T00:40:08.170Z,1011.80
2023-05-06T00:41:08.240Z,1011.81
2023-05-06T00:42:08.259Z,1011.82
2023-05-06T00:43:08.152Z,1011.82
2023-05-06T00:44:08.228Z,1011.82
2023-05-06T00:45:08.402Z,1011.82
2023-05-06T00:46:08.093Z,1011.82
2023-05-06T00:47:08.102Z,1011.82
2023-05-06T00:48:08.187Z,1011.82
2023-05-06T00:49:08.104Z,1011.82
2023-05-06T00:50:08.153Z,1011.82
2023-05-06T00:51:08.143Z,1011.81
2023-05-06T00:52:08.153Z,1011.81
2023-05-06T00:53:08.052Z,1011.81
2023-05-06T00:54:08.084Z,1011.80
2023-05-06T00:55:08.220Z,1011.79
2023-05-06T00:56:07.971Z,1011.79
2023-05-06T00:57:08.066Z,1011.79
2023-05-06T00:58:08.048Z,1011.79
2023-05-06T00:59:08.068Z,1011.78
2023-05-06T01:00:08.077Z,1011.78
2023-05-06T01:01:08.132Z,1011.79
2023-05-06T01:02:08.004Z,1011.79
2023-05-06T01:03:08.000Z,1011.80
2023-05-06T01:04:08.128Z,1011.81
2023-05-06T01:05:08.188Z,1011.81
2023-05-06T01:06:07.992Z,1011.80
2023-05-06T01:07:08.015Z,1011.79
2023-05-06T01:08:07.987Z,1011.78
2023-05-06T01:09:08.048Z,1011.77
2023-05-06T01:10:07.914Z,1011.77
2023-05-06T01:11:07.880Z,1011.77
2023-05-06T01:12:07.872Z,1011.76
2023-05-06T01:13:07.896Z,1011.76
2023-05-06T01:14:07.854Z,1011.75
2023-05-06T01:15:08.302Z,1011.74
2023-05-06T01:16:07.866Z,1011.74
2023-05-06T01:17:07.841Z,1011.74
2023-05-06T01:18:07.902Z,1011.74
2023-05-06T01:19:07.804Z,1011.75
2023-05-06T01:20:07.854Z,1011.76
2023-05-06T01:21:07.798Z,1011.77
2023-05-06T01:22:07.815Z,1011.78
2023-05-06T01:23:07.698Z,1011.80
2023-05-06T01:24:07.770Z,1011.80
2023-05-06T01:25:08.206Z,1011.81
2023-05-06T01:26:07.764Z,1011.82
2023-05-06T01:27:07.657Z,1011.82
2023-05-06T01:28:07.723Z,1011.82
2023-05-06T01:29:07.790Z,1011.82
2023-05-06T01:30:07.747Z,1011.82
2023-05-06T01:31:07.815Z,1011.82
2023-05-06T01:32:07.706Z,1011.82
2023-05-06T01:33:07.694Z,1011.81
2023-05-06T01:34:07.905Z,1011.80
2023-05-06T01:35:07.776Z,1011.78
2023-05-06T01:36:07.610Z,1011.76
2023-05-06T01:37:07.643Z,1011.74
2023-05-06T01:38:07.729Z,1011.71
2023-05-06T01:39:07.729Z,1011.71
2023-05-06T01:40:07.717Z,1011.71
2023-05-06T01:41:07.590Z,1011.72
2023-05-06T01:42:07.560Z,1011.73
2023-05-06T01:43:07.618Z,1011.75
2023-05-06T01:44:07.562Z,1011.76
2023-05-06T01:45:07.916Z,1011.76
2023-05-06T01:46:07.618Z,1011.75
2023-05-06T01:47:07.540Z,1011.75
2023-05-06T01:48:07.526Z,1011.74
2023-05-06T01:49:07.459Z,1011.74
2023-05-06T01:50:07.462Z,1011.75
2023-05-06T01:51:07.468Z,1011.75
2023-05-06T01:52:07.475Z,1011.74
2023-05-06T01:53:07.568Z,1011.73
2023-05-06T01:54:07.523Z,1011.72
2023-05-06T01:55:07.721Z,1011.70
2023-05-06T01:56:07.466Z,1011.69
2023-05-06T01:57:07.441Z,1011.68
2023-05-06T01:58:07.489Z,1011.68
2023-05-06T01:59:07.396Z,1011.67
2023-05-06T02:00:07.395Z,1011.65
2023-05-06T02:01:07.456Z,1011.63
2023-05-06T02:02:07.559Z,1011.62
2023-05-06T02:03:07.445Z,1011.61
2023-05-06T02:04:07.514Z,1011.62
2023-05-06T02:05:07.584Z,1011.64
2023-05-06T02:06:07.316Z,1011.65
2023-05-06T02:07:07.319Z,1011.67
2023-05-06T02:08:07.389Z,1011.67
2023-05-06T02:09:07.366Z,1011.67
2023-05-06T02:10:07.346Z,1011.67
2023-05-06T02:11:07.410Z,1011.66
2023-05-06T02:12:07.323Z,1011.67
2023-05-06T02:13:07.473Z,1011.66
2023-05-06T02:14:07.336Z,1011.67
2023-05-06T02:15:07.819Z,1011.68
2023-05-06T02:16:07.427Z,1011.68
2023-05-06T02:17:07.337Z,1011.68
2023-05-06T02:18:07.255Z,1011.69
2023-05-06T02:19:07.428Z,1011.69
2023-05-06T02:20:07.197Z,1011.69
2023-05-06T02:21:07.219Z,1011.69
2023-05-06T02:22:07.505Z,1011.69
2023-05-06T02:23:07.132Z,1011.69
2023-05-06T02:24:07.170Z,1011.70
2023-05-06T02:25:07.468Z,1011.72
2023-05-06T02:26:07.137Z,1011.73
2023-05-06T02:27:07.085Z,1011.74
2023-05-06T02:28:07.226Z,1011.74
2023-05-06T02:29:07.110Z,1011.75
2023-05-06T02:30:07.079Z,1011.75
2023-05-06T02:31:07.227Z,1011.76
2023-05-06T02:32:07.201Z,1011.76
2023-05-06T02:33:07.093Z,1011.76
2023-05-06T02:34:07.057Z,1011.76
2023-05-06T02:35:07.209Z,1011.76
2023-05-06T02:36:07.175Z,1011.76
2023-05-06T02:37:07.104Z,1011.75
2023-05-06T02:38:07.132Z,1011.75
2023-05-06T02:39:07.196Z,1011.75
2023-05-06T02:40:06.996Z,1011.75
2023-05-06T02:41:07.110Z,1011.74
2023-05-06T02:42:07.028Z,1011.75
2023-05-06T02:43:07.112Z,1011.75
2023-05-06T02:44:06.965Z,1011.76
2023-05-06T02:45:07.068Z,1011.76
2023-05-06T02:46:07.015Z,1011.74
2023-05-06T02:47:06.937Z,1011.72
2023-05-06T02:48:07.004Z,1011.70
2023-05-06T02:49:07.018Z,1011.67
2023-05-06T02:50:06.874Z,1011.67
2023-05-06T02:51:07.041Z,1011.68
2023-05-06T02:52:07.023Z,1011.70
2023-05-06T02:53:06.945Z,1011.73
2023-05-06T02:54:06.917Z,1011.74
2023-05-06T02:55:06.955Z,1011.73
2023-05-06T02:56:06.848Z,1011.73
2023-05-06T02:57:06.946Z,1011.73
2023-05-06T02:58:07.056Z,1011.72
2023-05-06T02:59:06.792Z,1011.71
2023-05-06T03:00:07.048Z,1011.70
2023-05-06T03:01:06.821Z,1011.70
2023-05-06T03:02:06.785Z,1011.69
2023-05-06T03:03:06.936Z,1011.70
2023-05-06T03:04:06.753Z,1011.70
2023-05-06T03:05:06.832Z,1011.72
2023-05-06T03:06:07.021Z,1011.73
2023-05-06T03:07:06.916Z,1011.74
2023-05-06T03:08:06.751Z,1011.75
2023-05-06T03:09:06.709Z,1011.76
2023-05-06T03:10:06.811Z,1011.76
2023-05-06T03:11:08.093Z,1011.76
2023-05-06T03:12:06.818Z,1011.75
2023-05-06T03:13:06.765Z,1011.73
2023-05-06T03:14:06.622Z,1011.71
2023-05-06T03:15:06.672Z,1011.69
2023-05-06T03:16:06.628Z,1011.68
2023-05-06T03:17:06.608Z,1011.67
2023-05-06T03:18:06.647Z,1011.67
2023-05-06T03:19:06.757Z,1011.66
2023-05-06T03:20:06.570Z,1011.66
2023-05-06T03:21:06.706Z,1011.66
2023-05-06T03:22:06.547Z,1011.66
2023-05-06T03:23:06.638Z,1011.66
2023-05-06T03:24:06.436Z,1011.67
2023-05-06T03:25:06.507Z,1011.68
2023-05-06T03:26:06.533Z,1011.68
2023-05-06T03:27:06.557Z,1011.70
2023-05-06T03:28:06.445Z,1011.70
2023-05-06T03:29:06.596Z,1011.70
2023-05-06T03:30:06.495Z,1011.70
2023-05-06T03:31:06.535Z,1011.69
2023-05-06T03:32:06.521Z,1011.67
2023-05-06T03:33:06.392Z,1011.65
2023-05-06T03:34:06.572Z,1011.65
2023-05-06T03:35:06.549Z,1011.66
2023-05-06T03:36:06.418Z,1011.68
2023-05-06T03:37:06.485Z,1011.72
2023-05-06T03:38:06.402Z,1011.75
2023-05-06T03:39:06.661Z,1011.78
2023-05-06T03:40:06.348Z,1011.80
2023-05-06T03:41:06.390Z,1011.82
2023-05-06T03:42:09.098Z,1011.84
2023-05-06T03:43:06.402Z,1011.85
2023-05-06T03:44:06.325Z,1011.85
2023-05-06T03:45:06.319Z,1011.85
2023-05-06T03:46:06.251Z,1011.86
2023-05-06T03:47:06.387Z,1011.86
2023-05-06T03:48:06.371Z,1011.86
2023-05-06T03:49:06.363Z,1011.86
2023-05-06T03:50:06.278Z,1011.84
2023-05-06T03:51:06.380Z,1011.84
2023-05-06T03:52:06.269Z,1011.83
2023-05-06T03:53:06.274Z,1011.82
2023-05-06T03:54:06.547Z,1011.82
2023-05-06T03:55:06.594Z,1011.82
2023-05-06T03:56:06.136Z,1011.81
2023-05-06T03:57:06.133Z,1011.80
2023-05-06T03:58:06.240Z,1011.79
2023-05-06T03:59:06.231Z,1011.80
2023-05-06T04:00:06.198Z,1011.80
2023-05-06T04:01:06.214Z,1011.81
2023-05-06T04:02:06.227Z,1011.82
2023-05-06T04:03:06.247Z,1011.83
2023-05-06T04:04:06.136Z,1011.85
2023-05-06T04:05:06.091Z,1011.86
2023-05-06T04:06:06.098Z,1011.87
2023-05-06T04:07:06.268Z,1011.88
2023-05-06T04:08:05.989Z,1011.87
2023-05-06T04:09:06.053Z,1011.87
2023-05-06T04:10:06.060Z,1011.85
2023-05-06T04:11:06.058Z,1011.83
2023-05-06T04:12:06.021Z,1011.82
2023-05-06T04:13:06.129Z,1011.82
2023-05-06T04:14:06.044Z,1011.84
2023-05-06T04:15:05.981Z,1011.86
2023-05-06T04:16:05.953Z,1011.88
2023-05-06T04:17:06.084Z,1011.89
2023-05-06T04:18:06.141Z,1011.90
2023-05-06T04:19:06.679Z,1011.89
2023-05-06T04:20:05.992Z,1011.88
2023-05-06T04:21:05.838Z,1011.86
2023-05-06T04:22:06.067Z,1011.84
2023-05-06T04:23:05.858Z,1011.83
2023-05-06T04:24:06.032Z,1011.84
2023-05-06T04:25:05.819Z,1011.87
2023-05-06T04:26:05.854Z,1011.91
2023-05-06T04:27:05.919Z,1011.94
2023-05-06T04:28:05.841Z,1011.97
2023-05-06T04:29:05.868Z,1012.00
2023-05-06T04:30:05.823Z,1012.03
2023-05-06T04:31:05.845Z,1012.06
2023-05-06T04:32:05.952Z,1012.08
2023-05-06T04:33:05.713Z,1012.10
2023-05-06T04:34:05.677Z,1012.12
2023-05-06T04:35:05.712Z,1012.13
2023-05-06T04:36:05.684Z,1012.13
2023-05-06T04:37:05.703Z,1012.13
2023-05-06T04:38:05.638Z,1012.12
2023-05-06T04:39:05.676Z,1012.10
2023-05-06T04:40:05.696Z,1012.09
2023-05-06T04:41:05.752Z,1012.06
2023-05-06T04:42:05.697Z,1012.03
2023-05-06T04:43:05.629Z,1012.01
2023-05-06T04:44:05.602Z,1012.01
2023-05-06T04:45:05.616Z,1012.03
2023-05-06T04:46:05.622Z,1012.04
2023-05-06T04:47:05.707Z,1012.05
2023-05-06T04:48:05.721Z,1012.06
2023-05-06T04:49:05.595Z,1012.05
2023-05-06T04:50:05.522Z,1012.06
2023-05-06T04:51:05.512Z,1012.07
2023-05-06T04:52:05.571Z,1012.08
2023-05-06T04:53:05.566Z,1012.10
2023-05-06T04:54:05.750Z,1012.13
2023-05-06T04:55:05.514Z,1012.15
2023-05-06T04:56:05.548Z,1012.17
2023-05-06T04:57:05.498Z,1012.19
2023-05-06T04:58:05.450Z,1012.21
2023-05-06T04:59:05.493Z,1012.23
2023-05-06T05:00:05.444Z,1012.25
2023-05-06T05:01:05.470Z,1012.27
2023-05-06T05:02:05.396Z,1012.27
2023-05-06T05:03:05.612Z,1012.27
2023-05-06T05:04:05.542Z,1012.26
2023-05-06T05:05:05.355Z,1012.26
2023-05-06T05:06:05.391Z,1012.26
2023-05-06T05:07:05.325Z,1012.26
2023-05-06T05:08:05.385Z,1012.26
2023-05-06T05:09:05.378Z,1012.27
2023-05-06T05:10:05.350Z,1012.28
2023-05-06T05:11:05.333Z,1012.28
2023-05-06T05:12:05.352Z,1012.29
2023-05-06T05:13:05.357Z,1012.31
2023-05-06T05:14:05.333Z,1012.33
2023-05-06T05:15:05.250Z,1012.33
2023-05-06T05:16:05.248Z,1012.33
2023-05-06T05:17:05.322Z,1012.32
2023-05-06T05:18:05.342Z,1012.31
2023-05-06T05:19:06.761Z,1012.30
2023-05-06T05:20:05.211Z,1012.29
2023-05-06T05:21:05.268Z,1012.30
2023-05-06T05:22:05.233Z,1012.31
2023-05-06T05:23:05.151Z,1012.32
2023-05-06T05:24:05.167Z,1012.34
2023-05-06T05:25:07.499Z,1012.36
2023-05-06T05:26:05.234Z,1012.37
2023-05-06T05:27:05.130Z,1012.39
2023-05-06T05:28:05.142Z,1012.39
2023-05-06T05:29:05.115Z,1012.39
2023-05-06T05:30:05.135Z,1012.39
2023-05-06T05:31:05.296Z,1012.40
2023-05-06T05:32:05.165Z,1012.41
2023-05-06T05:33:05.188Z,1012.42
2023-05-06T05:34:05.099Z,1012.44
2023-05-06T05:35:05.062Z,1012.45
2023-05-06T05:36:05.281Z,1012.45
2023-05-06T05:37:05.090Z,1012.45
2023-05-06T05:38:05.024Z,1012.46
2023-05-06T05:39:05.064Z,1012.45
2023-05-06T05:40:05.020Z,1012.45
2023-05-06T05:41:05.021Z,1012.46
2023-05-06T05:42:05.025Z,1012.47
2023-05-06T05:43:05.185Z,1012.48
2023-05-06T05:44:05.006Z,1012.50
2023-05-06T05:45:05.038Z,1012.51
2023-05-06T05:46:05.100Z,1012.53
2023-05-06T05:47:04.979Z,1012.53
2023-05-06T05:48:04.976Z,1012.53
2023-05-06T05:49:04.975Z,1012.52
2023-05-06T05:50:04.968Z,1012.53
2023-05-06T05:51:04.888Z,1012.54
2023-05-06T05:52:04.913Z,1012.53
2023-05-06T05:53:04.873Z,1012.53
2023-05-06T05:54:04.965Z,1012.51
2023-05-06T05:55:04.928Z,1012.51
2023-05-06T05:56:04.877Z,1012.51
2023-05-06T05:57:04.836Z,1012.51
2023-05-06T05:58:05.316Z,1012.51
2023-05-06T05:59:06.253Z,1012.51
2023-05-06T06:00:04.797Z,1012.51
2023-05-06T06:01:04.871Z,1012.51
2023-05-06T06:02:04.855Z,1012.52
2023-05-06T06:03:04.828Z,1012.52
2023-05-06T06:04:04.853Z,1012.53
2023-05-06T06:05:04.843Z,1012.54
2023-05-06T06:06:04.733Z,1012.56
2023-05-06T06:07:04.782Z,1012.58
2023-05-06T06:08:04.728Z,1012.58
2023-05-06T06:09:04.719Z,1012.58
2023-05-06T06:10:04.709Z,1012.58
2023-05-06T06:11:04.701Z,1012.57
2023-05-06T06:12:04.632Z,1012.55
2023-05-06T06:13:04.752Z,1012.55
2023-05-06T06:14:04.653Z,1012.55
2023-05-06T06:15:04.678Z,1012.54
2023-05-06T06:16:04.757Z,1012.53
2023-05-06T06:17:04.639Z,1012.54
2023-05-06T06:18:04.720Z,1012.53
2023-05-06T06:19:04.598Z,1012.54
2023-05-06T06:20:04.634Z,1012.55
2023-05-06T06:21:04.654Z,1012.55
2023-05-06T06:22:04.544Z,1012.56
2023-05-06T06:23:04.882Z,1012.55
2023-05-06T06:24:04.522Z,1012.54
2023-05-06T06:25:04.496Z,1012.53
2023-05-06T06:26:04.567Z,1012.52
2023-05-06T06:27:04.535Z,1012.52
2023-05-06T06:28:04.624Z,1012.53
2023-05-06T06:29:04.618Z,1012.55
2023-05-06T06:30:04.487Z,1012.57
2023-05-06T06:31:04.461Z,1012.58
2023-05-06T06:32:04.520Z,1012.57
2023-05-06T06:33:04.516Z,1012.58
2023-05-06T06:34:04.467Z,1012.57
2023-05-06T06:35:04.482Z,1012.56
2023-05-06T06:36:04.579Z,1012.56
2023-05-06T06:37:05.364Z,1012.55
2023-05-06T06:38:04.437Z,1012.55
2023-05-06T06:39:04.411Z,1012.57
2023-05-06T06:40:04.371Z,1012.57
2023-05-06T06:41:04.383Z,1012.58
2023-05-06T06:42:04.398Z,1012.59
2023-05-06T06:43:04.384Z,1012.61
2023-05-06T06:44:04.350Z,1012.61
2023-05-06T06:45:04.421Z,1012.62
2023-05-06T06:46:04.410Z,1012.62
2023-05-06T06:47:04.324Z,1012.63
2023-05-06T06:48:04.453Z,1012.63
2023-05-06T06:49:06.912Z,1012.63
2023-05-06T06:50:04.333Z,1012.63
2023-05-06T06:51:04.365Z,1012.62
2023-05-06T06:52:04.229Z,1012.62
2023-05-06T06:53:06.245Z,1012.61
2023-05-06T06:54:04.223Z,1012.60
2023-05-06T06:55:04.301Z,1012.60
2023-05-06T06:56:04.202Z,1012.60
2023-05-06T06:57:04.383Z,1012.58
2023-05-06T06:58:04.216Z,1012.59
2023-05-06T06:59:04.143Z,1012.59
2023-05-06T07:00:04.217Z,1012.58
2023-05-06T07:01:04.217Z,1012.59
2023-05-06T07:02:04.195Z,1012.59
2023-05-06T07:03:04.263Z,1012.60
2023-05-06T07:04:06.551Z,1012.61
2023-05-06T07:05:04.202Z,1012.61
2023-05-06T07:06:04.138Z,1012.61
2023-05-06T07:07:04.076Z,1012.60
2023-05-06T07:08:04.043Z,1012.59
2023-05-06T07:09:04.142Z,1012.57
2023-05-06T07:10:04.071Z,1012.56
2023-05-06T07:11:04.126Z,1012.55
2023-05-06T07:12:04.045Z,1012.54
2023-05-06T07:13:04.106Z,1012.53
2023-05-06T07:14:04.077Z,1012.53
2023-05-06T07:15:04.086Z,1012.52
2023-05-06T07:16:04.016Z,1012.52
2023-05-06T07:17:04.049Z,1012.53
2023-05-06T07:18:04.062Z,1012.54
2023-05-06T07:19:03.967Z,1012.56
2023-05-06T07:20:03.963Z,1012.58
2023-05-06T07:21:03.946Z,1012.58
2023-05-06T07:22:03.900Z,1012.58
2023-05-06T07:23:03.957Z,1012.58
2023-05-06T07:24:03.925Z,1012.58
2023-05-06T07:25:03.888Z,1012.58
2023-05-06T07:26:03.876Z,1012.59
2023-05-06T07:27:03.940Z,1012.59
2023-05-06T07:28:03.896Z,1012.60
2023-05-06T07:29:03.946Z,1012.60
2023-05-06T07:30:03.831Z,1012.59
2023-05-06T07:31:03.927Z,1012.58
2023-05-06T07:32:03.849Z,1012.57
2023-05-06T07:33:03.854Z,1012.57
2023-05-06T07:34:03.745Z,1012.58
2023-05-06T07:35:03.786Z,1012.58
2023-05-06T07:36:03.749Z,1012.58
2023-05-06T07:37:03.781Z,1012.59
2023-05-06T07:38:03.781Z,1012.59
2023-05-06T07:39:03.766Z,1012.59
2023-05-06T07:40:03.718Z,1012.58
2023-05-06T07:41:03.690Z,1012.58
2023-05-06T07:42:03.708Z,1012.59
2023-05-06T07:43:03.813Z,1012.59
2023-05-06T07:44:03.688Z,1012.59
2023-05-06T07:45:03.653Z,1012.59
2023-05-06T07:46:03.668Z,1012.61
2023-05-06T07:47:03.793Z,1012.63
2023-05-06T07:48:03.733Z,1012.63
2023-05-06T07:49:03.695Z,1012.65
2023-05-06T07:50:03.689Z,1012.64
2023-05-06T07:51:03.628Z,1012.66
2023-05-06T07:52:03.668Z,1012.67
2023-05-06T07:53:03.592Z,1012.68
2023-05-06T07:54:03.601Z,1012.67
2023-05-06T07:55:03.626Z,1012.66
2023-05-06T07:56:03.577Z,1012.64
2023-05-06T07:57:03.568Z,1012.63
2023-05-06T07:58:03.543Z,1012.64
2023-05-06T07:59:03.523Z,1012.62
2023-05-06T08:00:03.587Z,1012.60
2023-05-06T08:01:03.499Z,1012.60
2023-05-06T08:02:03.602Z,1012.60
2023-05-06T08:03:03.588Z,1012.61
2023-05-06T08:04:03.690Z,1012.61
2023-05-06T08:05:03.462Z,1012.60
2023-05-06T08:06:03.453Z,1012.63
2023-05-06T08:07:03.437Z,1012.64
2023-05-06T08:08:03.472Z,1012.67
2023-05-06T08:09:03.403Z,1012.69
2023-05-06T08:10:03.470Z,1012.72
2023-05-06T08:11:03.402Z,1012.75
2023-05-06T08:12:03.391Z,1012.77
2023-05-06T08:13:03.386Z,1012.78
2023-05-06T08:14:03.405Z,1012.79
2023-05-06T08:15:03.378Z,1012.79
2023-05-06T08:16:03.385Z,1012.79
2023-05-06T08:17:03.325Z,1012.80
2023-05-06T08:18:13.705Z,1012.80
2023-05-06T08:19:03.360Z,1012.80
2023-05-06T08:20:03.311Z,1012.81
2023-05-06T08:21:03.301Z,1012.81
2023-05-06T08:22:03.315Z,1012.82
2023-05-06T08:23:03.347Z,1012.82
2023-05-06T08:24:03.281Z,1012.83
2023-05-06T08:25:03.246Z,1012.83
2023-05-06T08:26:03.238Z,1012.83
2023-05-06T08:27:03.218Z,1012.83
2023-05-06T08:28:03.230Z,1012.83
2023-05-06T08:29:03.278Z,1012.82
2023-05-06T08:30:03.258Z,1012.80
2023-05-06T08:31:03.172Z,1012.81
2023-05-06T08:32:03.336Z,1012.80
2023-05-06T08:33:03.208Z,1012.80
2023-05-06T08:34:03.154Z,1012.79
2023-05-06T08:35:03.172Z,1012.78
2023-05-06T08:36:03.177Z,1012.78
2023-05-06T08:37:03.167Z,1012.79
2023-05-06T08:38:03.142Z,1012.79
2023-05-06T08:39:03.148Z,1012.79
2023-05-06T08:40:03.150Z,1012.77
2023-05-06T08:41:03.104Z,1012.76
2023-05-06T08:42:03.115Z,1012.76
2023-05-06T08:43:03.069Z,1012.77
2023-05-06T08:44:03.063Z,1012.77
2023-05-06T08:45:03.114Z,1012.78
2023-05-06T08:46:03.102Z,1012.78
2023-05-06T08:47:03.061Z,1012.79
2023-05-06T08:48:03.036Z,1012.80
2023-05-06T08:49:03.065Z,1012.79
2023-05-06T08:50:03.067Z,1012.80
2023-05-06T08:51:02.981Z,1012.81
2023-05-06T08:52:02.971Z,1012.82
2023-05-06T08:53:02.968Z,1012.82
2023-05-06T08:54:02.974Z,1012.82
2023-05-06T08:55:02.968Z,1012.83
2023-05-06T08:56:02.975Z,1012.85
2023-05-06T08:57:02.913Z,1012.85
2023-05-06T08:58:02.926Z,1012.83
2023-05-06T08:59:02.977Z,1012.82
2023-05-06T09:00:02.979Z,1012.81
2023-05-06T09:01:02.942Z,1012.81
2023-05-06T09:02:02.907Z,1012.82
2023-05-06T09:03:02.916Z,1012.82
2023-05-06T09:04:02.833Z,1012.83
2023-05-06T09:05:02.822Z,1012.82
2023-05-06T09:06:02.830Z,1012.81
2023-05-06T09:07:02.807Z,1012.80
2023-05-06T09:08:02.845Z,1012.80
2023-05-06T09:09:02.774Z,1012.79
2023-05-06T09:10:02.837Z,1012.79
2023-05-06T09:11:02.819Z,1012.78
2023-05-06T09:12:02.785Z,1012.78
2023-05-06T09:13:02.838Z,1012.79
2023-05-06T09:14:02.780Z,1012.79
2023-05-06T09:15:02.741Z,1012.79
2023-05-06T09:16:02.749Z,1012.77
2023-05-06T09:17:02.743Z,1012.75
2023-05-06T09:18:02.776Z,1012.75
2023-05-06T09:19:02.675Z,1012.73
2023-05-06T09:20:02.703Z,1012.73
2023-05-06T09:21:02.652Z,1012.70
2023-05-06T09:22:02.695Z,1012.70
2023-05-06T09:23:02.703Z,1012.68
2023-05-06T09:24:02.665Z,1012.69
2023-05-06T09:25:02.744Z,1012.70
2023-05-06T09:26:02.651Z,1012.68
2023-05-06T09:27:02.597Z,1012.67
2023-05-06T09:28:02.627Z,1012.66
2023-05-06T09:29:02.593Z,1012.64
2023-05-06T09:30:02.607Z,1012.64
2023-05-06T09:31:02.624Z,1012.64
2023-05-06T09:32:02.562Z,1012.64
2023-05-06T09:33:02.652Z,1012.64
2023-05-06T09:34:02.550Z,1012.64
2023-05-06T09:35:02.542Z,1012.64
2023-05-06T09:36:02.504Z,1012.63
2023-05-06T09:37:02.500Z,1012.62
2023-05-06T09:38:02.547Z,1012.61
2023-05-06T09:39:02.480Z,1012.60
2023-05-06T09:40:02.497Z,1012.58
2023-05-06T09:41:02.510Z,1012.58
2023-05-06T09:42:02.443Z,1012.57
2023-05-06T09:43:02.453Z,1012.57
2023-05-06T09:44:02.506Z,1012.56
2023-05-06T09:45:02.542Z,1012.56
2023-05-06T09:46:02.437Z,1012.54
2023-05-06T09:47:02.365Z,1012.53
2023-05-06T09:48:02.460Z,1012.52
2023-05-06T09:49:02.409Z,1012.51
2023-05-06T09:50:02.406Z,1012.49
2023-05-06T09:51:02.355Z,1012.49
2023-05-06T09:52:02.367Z,1012.49
2023-05-06T09:53:02.338Z,1012.50
2023-05-06T09:54:02.356Z,1012.50
2023-05-06T09:55:02.319Z,1012.48
2023-05-06T09:56:02.320Z,1012.47
2023-05-06T09:57:02.283Z,1012.47
2023-05-06T09:58:02.272Z,1012.47
2023-05-06T09:59:02.267Z,1012.46
2023-05-06T10:00:02.266Z,1012.44
2023-05-06T10:01:02.263Z,1012.43
2023-05-06T10:02:02.288Z,1012.41
2023-05-06T10:03:02.346Z,1012.42
2023-05-06T10:04:02.299Z,1012.42
2023-05-06T10:05:02.388Z,1012.39
2023-05-06T10:06:02.212Z,1012.39
2023-05-06T10:07:02.191Z,1012.39
2023-05-06T10:08:02.187Z,1012.38
2023-05-06T10:09:02.149Z,1012.39
2023-05-06T10:10:02.144Z,1012.40
2023-05-06T10:11:02.184Z,1012.41
2023-05-06T10:12:02.170Z,1012.42
2023-05-06T10:13:02.171Z,1012.41
2023-05-06T10:14:02.154Z,1012.39
2023-05-06T10:15:02.116Z,1012.40
2023-05-06T10:16:02.208Z,1012.40
2023-05-06T10:17:02.092Z,1012.39
2023-05-06T10:18:02.151Z,1012.36
2023-05-06T10:19:02.042Z,1012.35
2023-05-06T10:20:02.074Z,1012.34
2023-05-06T10:21:02.116Z,1012.34
2023-05-06T10:22:03.404Z,1012.32
2023-05-06T10:23:02.008Z,1012.31
2023-05-06T10:24:02.067Z,1012.30
2023-05-06T10:25:02.050Z,1012.29
2023-05-06T10:26:01.979Z,1012.30
2023-05-06T10:27:02.013Z,1012.29
2023-05-06T10:28:03.345Z,1012.30
2023-05-06T10:29:01.975Z,1012.29
2023-05-06T10:30:01.994Z,1012.28
2023-05-06T10:31:01.977Z,1012.28
2023-05-06T10:32:02.143Z,1012.27
2023-05-06T10:33:01.944Z,1012.26
2023-05-06T10:34:01.869Z,1012.26
2023-05-06T10:35:01.923Z,1012.25
2023-05-06T10:36:01.890Z,1012.24
2023-05-06T10:37:01.864Z,1012.24
2023-05-06T10:38:01.865Z,1012.24
2023-05-06T10:39:01.844Z,1012.22
2023-05-06T10:40:01.822Z,1012.21
2023-05-06T10:41:01.810Z,1012.22
2023-05-06T10:42:01.815Z,1012.19
2023-05-06T10:43:01.803Z,1012.19
2023-05-06T10:44:01.806Z,1012.19
2023-05-06T10:45:01.810Z,1012.16
2023-05-06T10:46:01.975Z,1012.14
2023-05-06T10:47:01.725Z,1012.15
2023-05-06T10:48:01.820Z,1012.13
2023-05-06T10:49:01.736Z,1012.13
2023-05-06T10:50:01.795Z,1012.12
2023-05-06T10:51:01.697Z,1012.11
2023-05-06T10:52:01.725Z,1012.11
2023-05-06T10:53:02.200Z,1012.10
2023-05-06T10:54:01.721Z,1012.09
2023-05-06T10:55:01.671Z,1012.06
2023-05-06T10:56:01.663Z,1012.06
2023-05-06T10:57:01.629Z,1012.04
2023-05-06T10:58:01.676Z,1012.07
2023-05-06T10:59:01.621Z,1012.07
2023-05-06T11:00:01.625Z,1012.05
2023-05-06T11:01:01.650Z,1012.05
2023-05-06T11:02:01.651Z,1012.05
2023-05-06T11:03:01.749Z,1012.04
2023-05-06T11:04:01.563Z,1012.03
2023-05-06T11:05:01.613Z,1012.02
2023-05-06T11:06:01.597Z,1012.01
2023-05-06T11:07:01.549Z,1011.99
2023-05-06T11:08:01.528Z,1011.98
2023-05-06T11:09:01.503Z,1011.99
2023-05-06T11:10:01.633Z,1011.98
2023-05-06T11:11:01.548Z,1011.99
2023-05-06T11:12:01.502Z,1011.99
2023-05-06T11:13:01.558Z,1011.99
2023-05-06T11:14:01.472Z,1012.00
2023-05-06T11:15:01.479Z,1012.00
2023-05-06T11:16:01.508Z,1011.99
2023-05-06T11:17:01.714Z,1011.99
2023-05-06T11:18:01.490Z,1011.98
2023-05-06T11:19:01.423Z,1011.98
2023-05-06T11:20:01.497Z,1011.97
2023-05-06T11:21:01.486Z,1011.96
2023-05-06T11:22:01.435Z,1011.96
2023-05-06T11:23:01.437Z,1011.96
2023-05-06T11:24:01.396Z,1011.95
2023-05-06T11:25:01.348Z,1011.94
2023-05-06T11:26:01.366Z,1011.93
2023-05-06T11:27:01.406Z,1011.92
2023-05-06T11:28:01.329Z,1011.90
2023-05-06T11:29:01.317Z,1011.88
2023-05-06T11:30:02.256Z,1011.87
2023-05-06T11:31:01.333Z,1011.86
2023-05-06T11:32:01.302Z,1011.86
2023-05-06T11:33:02.754Z,1011.85
2023-05-06T11:34:01.354Z,1011.85
2023-05-06T11:35:01.272Z,1011.86
2023-05-06T11:36:01.238Z,1011.86
2023-05-06T11:37:01.244Z,1011.86
2023-05-06T11:38:01.291Z,1011.88
2023-05-06T11:39:03.426Z,1011.89
2023-05-06T11:40:01.246Z,1011.89
2023-05-06T11:41:01.178Z,1011.89
2023-05-06T11:42:01.197Z,1011.88
2023-05-06T11:43:01.141Z,1011.88
2023-05-06T11:44:01.150Z,1011.89
2023-05-06T11:45:01.208Z,1011.88
2023-05-06T11:46:01.201Z,1011.88
2023-05-06T11:47:01.168Z,1011.89
2023-05-06T11:48:01.225Z,1011.89
2023-05-06T11:49:01.158Z,1011.88
2023-05-06T11:50:01.141Z,1011.88
2023-05-06T11:51:01.056Z,1011.88
2023-05-06T11:52:01.092Z,1011.89
2023-05-06T11:53:01.118Z,1011.88
2023-05-06T11:54:01.068Z,1011.88
2023-05-06T11:55:01.073Z,1011.87
2023-05-06T11:56:01.165Z,1011.88
2023-05-06T11:57:01.033Z,1011.89
2023-05-06T11:58:01.021Z,1011.89
2023-05-06T11:59:01.029Z,1011.91
2023-05-06T12:00:01.040Z,1011.92
2023-05-06T12:01:00.979Z,1011.92
2023-05-06T12:02:00.978Z,1011.93
2023-05-06T12:03:01.060Z,1011.92
2023-05-06T12:04:01.118Z,1011.93
2023-05-06T12:05:00.990Z,1011.91